AirNav   Everest Fuels
 
 796 users online  

6TA2 Flying Tiger Field Airport
Leonard, Texas, USA

GOING TO LEONARD?


FAA INFORMATION EFFECTIVE 04 NOVEMBER 2021

Location

FAA Identifier: 6TA2
Lat/Long: 33-22-20.0000N 096-21-44.0000W
33-22.333333N 096-21.733333W
33.3722222,-96.3622222
(estimated)
Elevation: 685 ft. / 209 m (estimated)
Variation: 06E (1990)
From city: 6 miles W of LEONARD, TX
Time zone: UTC -5 (UTC -6 during Standard Time)
Zip code: 75452

Airport Operations

Airport use: Private use. Permission required prior to landing
Activation date: 09/1995
Control tower: no
ARTCC: FORT WORTH CENTER
FSS: FORT WORTH FLIGHT SERVICE STATION
Attendance: UNATNDD
Wind indicator: yes
Segmented circle: no

Airport Communications

WX ASOS at TKI (16 nm SW): PHONE 972-548-8525
WX AWOS-3PT at F00 (17 nm NE): 118.05 (903-583-2082)

Nearby radio navigation aids

VOR radial/distance  VOR name  Freq  Var
BYPr207/11.8BONHAM VORTAC114.6006E
CVEr037/39.7COWBOY VOR/DME116.2006E

 
NDB name  Hdg/Dist  Freq  Var  ID
DENISON145/31.334106EDNI -.. -. ..
MESQUITE011/34.824803EPQF .--. --.- ..-.

Airport Services

Runway Information

Runway 18/36

Dimensions: 2600 x 60 ft. / 792 x 18 m
Surface: turf
Runway edge markings: 18/36 OUTLINED WITH WHITE GRVL & TIRES PAINTED WHITE. DSPLCD THLD MKD WITH 3 TIRES PAINTED WHITE EACH SIDE OF RY.
RUNWAY 18  RUNWAY 36
Traffic pattern: leftleft
Displaced threshold: 500 ft.no
Obstructions: 30 ft. plines, marked, 500 ft. from runwaynone

Airport Ownership and Management from official FAA records

Ownership: Privately-owned
Owner: JIM HOLDER
23251 SOUTH HIGHWAY 78
LEONARD, TX 75452
Phone 817-917-4988
Manager: JIM HOLDER
23251 SOUTH HIGHWAY 78
LEONARD, TX 75452
Phone 817-917-4988

Airport Operational Statistics

Aircraft based on the field: 2
Single engine airplanes: 2
    

Additional Remarks

FOR CD CTC FORT WORTH ARTCC AT 817-858-7584.

Instrument Procedures

There are no published instrument procedures at 6TA2.

Some nearby airports with instrument procedures:

KTKI - McKinney National Airport (16 nm SW)
F00 - Jones Field Airport (17 nm NE)
KSWI - Sherman Municipal Airport (19 nm NW)
7F3 - Caddo Mills Municipal Airport (21 nm S)
KGVT - Majors Airport (24 nm SE)
 
Loc | Ops | Rwys | IFR | FBO | Links
Com | Nav | Svcs | Stats | Notes

City of Fort Worth
 
Area around 6TA2 (Flying Tiger Field Airport)
 
Road maps at: MapQuest Bing Google
 
Aerial photo
No photo
 
Sectional chart

 
Airport distance calculator
Flying to Flying Tiger Field Airport? Find the distance to fly.

From to 6TA2

Sunrise and sunset
Times for 30-Nov-2021
 Local
(UTC-6)
 Zulu
(UTC)
Morning civil twilight06:4412:44
Sunrise07:1113:11
Sunset17:1723:17
Evening civil twilight17:4423:44

Current date and time
Zulu (UTC)  01-Dec-2021 05:14:37
Local (UTC-6)  30-Nov-2021 23:14:37
 
METAR
KTKI 
16nm SW 
010453Z AUTO 17005KT 10SM CLR 13/08 A3007 RMK AO2 SLP187 T01280078
KF00 
17nm NE 
010455Z AUTO 17008KT 10SM CLR 12/08 A3007 RMK AO2 T01240079
KGVT 
24nm SE 
010455Z AUTO 17008KT 10SM CLR 13/10 A3009 RMK AO2 TSNO T01260102
KGYI 
26nm NW 
010455Z AUTO 18011KT 10SM CLR 14/07 A3005 RMK AO2 T01380067
KF46 
27nm S 
010455Z AUTO 19009KT 10SM CLR 14/12 A3009 RMK AO2 T01420115
TAF
KDAL 
40nm SW 
010255Z 0103/0124 18010KT P6SM FEW250 FM011400 26009KT P6SM FEW250 FM011900 32008KT P6SM FEW250
KDFW 
43nm SW 
010255Z 0103/0206 18010KT P6SM FEW250 FM011400 26009KT P6SM FEW250 FM011900 32008KT P6SM FEW250
NOTAMs
Click for the latest NOTAMs
NOTAMs are issued by the DoD/FAA and will open in a separate window not controlled by AirNav.

 

 
 

Would you like to see your business listed on this page?

 If your business provides an interesting product or service to pilots, flight crews, aircraft, or users of the Flying Tiger Field Airport, you should consider listing it here.  To start the listing process, click on the button below
 
Add a business
 

Other Pages about Flying Tiger Field Airport

Update a link
 
Copyright © AirNav, LLC. All rights reserved. Privacy Policy  Contact